sensor_id;sensor_type;location;lat;lon;timestamp;temperature;humidity
14182;DHT22;7171;50.936;6.764;2023-11-21T00:00:20;10.90;99.90
14182;DHT22;7171;50.936;6.764;2023-11-21T00:02:48;10.90;99.90
14182;DHT22;7171;50.936;6.764;2023-11-21T00:05:15;10.90;99.90
14182;DHT22;7171;50.936;6.764;2023-11-21T00:07:42;10.90;99.90
14182;DHT22;7171;50.936;6.764;2023-11-21T00:10:10;10.90;99.90
14182;DHT22;7171;50.936;6.764;2023-11-21T00:12:37;10.90;99.90
14182;DHT22;7171;50.936;6.764;2023-11-21T00:15:06;10.90;99.90
14182;DHT22;7171;50.936;6.764;2023-11-21T00:17:35;11.00;99.90
14182;DHT22;7171;50.936;6.764;2023-11-21T00:20:03;11.00;99.90
14182;DHT22;7171;50.936;6.764;2023-11-21T00:22:32;11.00;99.90
14182;DHT22;7171;50.936;6.764;2023-11-21T00:24:59;11.00;99.90
14182;DHT22;7171;50.936;6.764;2023-11-21T00:27:25;11.00;99.90
14182;DHT22;7171;50.936;6.764;2023-11-21T00:29:52;11.00;99.90
14182;DHT22;7171;50.936;6.764;2023-11-21T00:32:19;11.10;99.90
14182;DHT22;7171;50.936;6.764;2023-11-21T00:34:46;11.10;99.90
14182;DHT22;7171;50.936;6.764;2023-11-21T00:37:14;11.10;99.90
14182;DHT22;7171;50.936;6.764;2023-11-21T00:39:41;11.10;99.90
14182;DHT22;7171;50.936;6.764;2023-11-21T00:42:08;11.10;99.90
14182;DHT22;7171;50.936;6.764;2023-11-21T00:44:37;11.10;99.90
14182;DHT22;7171;50.936;6.764;2023-11-21T00:47:04;11.10;99.90
14182;DHT22;7171;50.936;6.764;2023-11-21T00:49:31;11.10;99.90
14182;DHT22;7171;50.936;6.764;2023-11-21T00:51:58;11.10;99.90
14182;DHT22;7171;50.936;6.764;2023-11-21T00:54:27;11.10;99.90
14182;DHT22;7171;50.936;6.764;2023-11-21T00:56:54;11.00;99.90
14182;DHT22;7171;50.936;6.764;2023-11-21T00:59:21;11.00;99.90
14182;DHT22;7171;50.936;6.764;2023-11-21T01:01:48;11.00;99.90
14182;DHT22;7171;50.936;6.764;2023-11-21T01:04:15;11.00;99.90
14182;DHT22;7171;50.936;6.764;2023-11-21T01:06:42;11.00;99.90
14182;DHT22;7171;50.936;6.764;2023-11-21T01:09:08;10.90;99.90
14182;DHT22;7171;50.936;6.764;2023-11-21T01:11:37;10.90;99.90
14182;DHT22;7171;50.936;6.764;2023-11-21T01:14:05;10.90;99.90
14182;DHT22;7171;50.936;6.764;2023-11-21T01:16:32;10.90;99.90
14182;DHT22;7171;50.936;6.764;2023-11-21T01:18:58;10.90;99.90
14182;DHT22;7171;50.936;6.764;2023-11-21T01:21:25;10.90;99.90
14182;DHT22;7171;50.936;6.764;2023-11-21T01:23:53;10.90;99.90
14182;DHT22;7171;50.936;6.764;2023-11-21T01:26:20;10.80;99.90
14182;DHT22;7171;50.936;6.764;2023-11-21T01:28:48;10.80;99.90
14182;DHT22;7171;50.936;6.764;2023-11-21T01:31:15;10.80;99.90
14182;DHT22;7171;50.936;6.764;2023-11-21T01:33:42;10.80;99.90
14182;DHT22;7171;50.936;6.764;2023-11-21T01:36:10;10.80;99.90
14182;DHT22;7171;50.936;6.764;2023-11-21T01:38:36;10.80;99.90
14182;DHT22;7171;50.936;6.764;2023-11-21T01:41:04;10.80;99.90
14182;DHT22;7171;50.936;6.764;2023-11-21T01:43:31;10.80;99.90
14182;DHT22;7171;50.936;6.764;2023-11-21T01:46:00;10.80;99.90
14182;DHT22;7171;50.936;6.764;2023-11-21T01:48:27;10.80;99.90
14182;DHT22;7171;50.936;6.764;2023-11-21T01:50:55;10.80;99.90
14182;DHT22;7171;50.936;6.764;2023-11-21T01:53:24;10.80;99.90
14182;DHT22;7171;50.936;6.764;2023-11-21T01:55:52;10.70;99.90
14182;DHT22;7171;50.936;6.764;2023-11-21T01:58:20;10.70;99.90
14182;DHT22;7171;50.936;6.764;2023-11-21T02:00:47;10.70;99.90
14182;DHT22;7171;50.936;6.764;2023-11-21T02:03:17;10.70;99.90
14182;DHT22;7171;50.936;6.764;2023-11-21T02:05:44;10.70;99.90
14182;DHT22;7171;50.936;6.764;2023-11-21T02:08:11;10.70;99.90
14182;DHT22;7171;50.936;6.764;2023-11-21T02:10:37;10.70;99.90
14182;DHT22;7171;50.936;6.764;2023-11-21T02:13:04;10.70;99.90
14182;DHT22;7171;50.936;6.764;2023-11-21T02:15:31;10.70;99.90
14182;DHT22;7171;50.936;6.764;2023-11-21T02:17:58;10.70;99.90
14182;DHT22;7171;50.936;6.764;2023-11-21T02:20:27;10.70;99.90
14182;DHT22;7171;50.936;6.764;2023-11-21T02:22:57;10.70;99.90
14182;DHT22;7171;50.936;6.764;2023-11-21T02:25:25;10.70;99.90
14182;DHT22;7171;50.936;6.764;2023-11-21T02:27:53;10.70;99.90
14182;DHT22;7171;50.936;6.764;2023-11-21T02:30:20;10.70;99.90
14182;DHT22;7171;50.936;6.764;2023-11-21T02:32:47;10.70;99.90
14182;DHT22;7171;50.936;6.764;2023-11-21T02:35:14;10.70;99.90
14182;DHT22;7171;50.936;6.764;2023-11-21T02:37:41;10.70;99.90
14182;DHT22;7171;50.936;6.764;2023-11-21T02:40:10;10.70;99.90
14182;DHT22;7171;50.936;6.764;2023-11-21T02:42:39;10.70;99.90
14182;DHT22;7171;50.936;6.764;2023-11-21T02:45:06;10.70;99.90
14182;DHT22;7171;50.936;6.764;2023-11-21T02:47:33;10.80;99.90
14182;DHT22;7171;50.936;6.764;2023-11-21T02:50:00;10.80;99.90
14182;DHT22;7171;50.936;6.764;2023-11-21T02:52:27;10.80;99.90
14182;DHT22;7171;50.936;6.764;2023-11-21T02:54:53;10.80;99.90
14182;DHT22;7171;50.936;6.764;2023-11-21T02:57:22;10.80;99.90
14182;DHT22;7171;50.936;6.764;2023-11-21T02:59:48;10.80;99.90
14182;DHT22;7171;50.936;6.764;2023-11-21T03:02:15;10.80;99.90
14182;DHT22;7171;50.936;6.764;2023-11-21T03:04:42;10.80;99.90
14182;DHT22;7171;50.936;6.764;2023-11-21T03:07:09;10.80;99.90
14182;DHT22;7171;50.936;6.764;2023-11-21T03:09:36;10.80;99.90
14182;DHT22;7171;50.936;6.764;2023-11-21T03:12:04;10.80;99.90
14182;DHT22;7171;50.936;6.764;2023-11-21T03:14:32;10.80;99.90
14182;DHT22;7171;50.936;6.764;2023-11-21T03:16:59;10.90;99.90
14182;DHT22;7171;50.936;6.764;2023-11-21T03:19:25;10.90;99.90
14182;DHT22;7171;50.936;6.764;2023-11-21T03:21:52;10.90;99.90
14182;DHT22;7171;50.936;6.764;2023-11-21T03:24:19;10.90;99.90
14182;DHT22;7171;50.936;6.764;2023-11-21T03:26:48;10.90;99.90
14182;DHT22;7171;50.936;6.764;2023-11-21T03:29:15;11.00;99.90
14182;DHT22;7171;50.936;6.764;2023-11-21T03:31:43;10.90;99.90
14182;DHT22;7171;50.936;6.764;2023-11-21T03:34:16;10.90;99.90
14182;DHT22;7171;50.936;6.764;2023-11-21T03:36:43;10.80;99.90
14182;DHT22;7171;50.936;6.764;2023-11-21T03:39:11;10.80;99.90
14182;DHT22;7171;50.936;6.764;2023-11-21T03:41:38;10.90;99.90
14182;DHT22;7171;50.936;6.764;2023-11-21T03:44:05;10.80;99.90
14182;DHT22;7171;50.936;6.764;2023-11-21T03:46:32;10.80;99.90
14182;DHT22;7171;50.936;6.764;2023-11-21T03:49:00;10.90;99.90
14182;DHT22;7171;50.936;6.764;2023-11-21T03:51:26;10.80;99.90
14182;DHT22;7171;50.936;6.764;2023-11-21T03:53:53;10.80;99.90
14182;DHT22;7171;50.936;6.764;2023-11-21T03:56:20;10.80;99.90
14182;DHT22;7171;50.936;6.764;2023-11-21T03:58:48;10.80;99.90
14182;DHT22;7171;50.936;6.764;2023-11-21T04:01:20;10.80;99.90
14182;DHT22;7171;50.936;6.764;2023-11-21T04:03:47;10.80;99.90
14182;DHT22;7171;50.936;6.764;2023-11-21T04:06:16;10.80;99.90
14182;DHT22;7171;50.936;6.764;2023-11-21T04:08:43;10.80;99.90
14182;DHT22;7171;50.936;6.764;2023-11-21T04:11:10;10.80;99.90
14182;DHT22;7171;50.936;6.764;2023-11-21T04:13:37;10.80;99.90
14182;DHT22;7171;50.936;6.764;2023-11-21T04:16:05;10.80;99.90
14182;DHT22;7171;50.936;6.764;2023-11-21T04:18:32;10.80;99.90
14182;DHT22;7171;50.936;6.764;2023-11-21T04:20:59;10.80;99.90
14182;DHT22;7171;50.936;6.764;2023-11-21T04:23:28;10.80;99.90
14182;DHT22;7171;50.936;6.764;2023-11-21T04:25:55;10.70;99.90
14182;DHT22;7171;50.936;6.764;2023-11-21T04:28:22;10.70;99.90
14182;DHT22;7171;50.936;6.764;2023-11-21T04:30:49;10.70;99.90
14182;DHT22;7171;50.936;6.764;2023-11-21T04:33:16;10.70;99.90
14182;DHT22;7171;50.936;6.764;2023-11-21T04:35:43;10.60;99.90
14182;DHT22;7171;50.936;6.764;2023-11-21T04:38:09;10.70;99.90
14182;DHT22;7171;50.936;6.764;2023-11-21T04:40:37;10.60;99.90
14182;DHT22;7171;50.936;6.764;2023-11-21T04:43:04;10.60;99.90
14182;DHT22;7171;50.936;6.764;2023-11-21T04:45:31;10.50;99.90
14182;DHT22;7171;50.936;6.764;2023-11-21T04:47:58;10.60;99.90
14182;DHT22;7171;50.936;6.764;2023-11-21T04:50:25;10.60;99.90
14182;DHT22;7171;50.936;6.764;2023-11-21T04:52:52;10.60;99.90
14182;DHT22;7171;50.936;6.764;2023-11-21T04:55:19;10.70;99.90
14182;DHT22;7171;50.936;6.764;2023-11-21T04:57:47;10.50;99.90
14182;DHT22;7171;50.936;6.764;2023-11-21T05:00:14;10.40;99.90
14182;DHT22;7171;50.936;6.764;2023-11-21T05:02:41;10.50;99.90
14182;DHT22;7171;50.936;6.764;2023-11-21T05:05:09;10.60;99.90
14182;DHT22;7171;50.936;6.764;2023-11-21T05:07:36;10.50;99.90
14182;DHT22;7171;50.936;6.764;2023-11-21T05:10:04;10.50;99.90
14182;DHT22;7171;50.936;6.764;2023-11-21T05:15:06;10.50;99.90
14182;DHT22;7171;50.936;6.764;2023-11-21T05:17:35;11.40;99.90
14182;DHT22;7171;50.936;6.764;2023-11-21T05:20:02;10.40;99.90
14182;DHT22;7171;50.936;6.764;2023-11-21T05:22:34;10.30;99.90
14182;DHT22;7171;50.936;6.764;2023-11-21T05:25:01;10.30;99.90
14182;DHT22;7171;50.936;6.764;2023-11-21T05:27:29;10.30;99.90
14182;DHT22;7171;50.936;6.764;2023-11-21T05:29:56;10.30;99.90
14182;DHT22;7171;50.936;6.764;2023-11-21T05:32:24;10.30;99.90
14182;DHT22;7171;50.936;6.764;2023-11-21T05:34:52;10.30;99.90
14182;DHT22;7171;50.936;6.764;2023-11-21T05:37:19;10.30;99.90
14182;DHT22;7171;50.936;6.764;2023-11-21T05:39:45;10.30;99.90
14182;DHT22;7171;50.936;6.764;2023-11-21T05:42:12;10.30;99.90
14182;DHT22;7171;50.936;6.764;2023-11-21T05:44:42;10.30;99.90
14182;DHT22;7171;50.936;6.764;2023-11-21T05:47:09;10.30;99.90
14182;DHT22;7171;50.936;6.764;2023-11-21T05:49:37;10.30;99.90
14182;DHT22;7171;50.936;6.764;2023-11-21T05:52:05;10.30;99.90
14182;DHT22;7171;50.936;6.764;2023-11-21T05:54:32;10.30;99.90
14182;DHT22;7171;50.936;6.764;2023-11-21T05:56:59;10.30;99.90
14182;DHT22;7171;50.936;6.764;2023-11-21T05:59:26;10.30;99.90
14182;DHT22;7171;50.936;6.764;2023-11-21T06:01:53;10.30;99.90
14182;DHT22;7171;50.936;6.764;2023-11-21T06:04:20;10.30;99.90
14182;DHT22;7171;50.936;6.764;2023-11-21T06:06:51;10.20;99.90
14182;DHT22;7171;50.936;6.764;2023-11-21T06:09:17;10.20;99.90
14182;DHT22;7171;50.936;6.764;2023-11-21T06:11:44;10.20;99.90
14182;DHT22;7171;50.936;6.764;2023-11-21T06:14:11;10.20;99.90
14182;DHT22;7171;50.936;6.764;2023-11-21T06:16:38;10.20;99.90
14182;DHT22;7171;50.936;6.764;2023-11-21T06:19:05;10.20;99.90
14182;DHT22;7171;50.936;6.764;2023-11-21T06:21:32;10.20;99.90
14182;DHT22;7171;50.936;6.764;2023-11-21T06:24:00;10.20;99.90
14182;DHT22;7171;50.936;6.764;2023-11-21T06:26:27;10.20;99.90
14182;DHT22;7171;50.936;6.764;2023-11-21T06:28:54;10.20;99.90
14182;DHT22;7171;50.936;6.764;2023-11-21T06:31:22;10.20;99.90
14182;DHT22;7171;50.936;6.764;2023-11-21T06:33:49;10.30;99.90
14182;DHT22;7171;50.936;6.764;2023-11-21T06:36:17;10.20;99.90
14182;DHT22;7171;50.936;6.764;2023-11-21T06:38:44;10.20;99.90
14182;DHT22;7171;50.936;6.764;2023-11-21T06:41:12;10.20;99.90
14182;DHT22;7171;50.936;6.764;2023-11-21T06:43:40;10.30;99.90
14182;DHT22;7171;50.936;6.764;2023-11-21T06:46:10;10.30;99.90
14182;DHT22;7171;50.936;6.764;2023-11-21T06:48:38;10.30;99.90
14182;DHT22;7171;50.936;6.764;2023-11-21T06:51:06;10.30;99.90
14182;DHT22;7171;50.936;6.764;2023-11-21T06:53:32;10.30;99.90
14182;DHT22;7171;50.936;6.764;2023-11-21T06:58:28;10.30;99.90
14182;DHT22;7171;50.936;6.764;2023-11-21T07:00:54;10.30;99.90
14182;DHT22;7171;50.936;6.764;2023-11-21T07:03:21;10.40;99.90
14182;DHT22;7171;50.936;6.764;2023-11-21T07:05:49;10.40;99.90
14182;DHT22;7171;50.936;6.764;2023-11-21T07:08:16;10.40;99.90
14182;DHT22;7171;50.936;6.764;2023-11-21T07:10:43;10.40;99.90
14182;DHT22;7171;50.936;6.764;2023-11-21T07:13:09;10.40;99.90
14182;DHT22;7171;50.936;6.764;2023-11-21T07:15:39;10.40;99.90
14182;DHT22;7171;50.936;6.764;2023-11-21T07:18:06;10.40;99.90
14182;DHT22;7171;50.936;6.764;2023-11-21T07:20:33;10.40;99.90
14182;DHT22;7171;50.936;6.764;2023-11-21T07:23:00;10.40;99.90
14182;DHT22;7171;50.936;6.764;2023-11-21T07:25:26;10.40;99.90
14182;DHT22;7171;50.936;6.764;2023-11-21T07:27:53;10.40;99.90
14182;DHT22;7171;50.936;6.764;2023-11-21T07:30:20;10.40;99.90
14182;DHT22;7171;50.936;6.764;2023-11-21T07:32:49;10.40;99.90
14182;DHT22;7171;50.936;6.764;2023-11-21T07:35:16;10.50;99.90
14182;DHT22;7171;50.936;6.764;2023-11-21T07:37:43;10.50;99.90
14182;DHT22;7171;50.936;6.764;2023-11-21T07:40:10;10.50;99.90
14182;DHT22;7171;50.936;6.764;2023-11-21T07:42:37;10.50;99.90
14182;DHT22;7171;50.936;6.764;2023-11-21T07:45:05;10.50;99.90
14182;DHT22;7171;50.936;6.764;2023-11-21T07:47:32;10.50;99.90
14182;DHT22;7171;50.936;6.764;2023-11-21T07:50:02;10.50;99.90
14182;DHT22;7171;50.936;6.764;2023-11-21T07:52:29;10.50;99.90
14182;DHT22;7171;50.936;6.764;2023-11-21T07:54:56;10.50;99.90
14182;DHT22;7171;50.936;6.764;2023-11-21T07:57:22;10.60;99.90
14182;DHT22;7171;50.936;6.764;2023-11-21T07:59:50;10.60;99.90
14182;DHT22;7171;50.936;6.764;2023-11-21T08:02:19;10.60;99.90
14182;DHT22;7171;50.936;6.764;2023-11-21T08:04:46;10.70;99.90
14182;DHT22;7171;50.936;6.764;2023-11-21T08:07:16;10.70;99.90
14182;DHT22;7171;50.936;6.764;2023-11-21T08:09:43;10.70;99.90
14182;DHT22;7171;50.936;6.764;2023-11-21T08:12:10;10.80;99.90
14182;DHT22;7171;50.936;6.764;2023-11-21T08:14:37;10.80;99.90
14182;DHT22;7171;50.936;6.764;2023-11-21T08:17:04;10.90;99.90
14182;DHT22;7171;50.936;6.764;2023-11-21T08:19:31;10.90;99.90
14182;DHT22;7171;50.936;6.764;2023-11-21T08:21:58;10.90;99.90
14182;DHT22;7171;50.936;6.764;2023-11-21T08:24:26;10.90;99.90
14182;DHT22;7171;50.936;6.764;2023-11-21T08:26:53;11.00;99.90
14182;DHT22;7171;50.936;6.764;2023-11-21T08:29:20;10.90;99.90
14182;DHT22;7171;50.936;6.764;2023-11-21T08:31:47;11.00;99.90
14182;DHT22;7171;50.936;6.764;2023-11-21T08:34:14;11.00;99.90
14182;DHT22;7171;50.936;6.764;2023-11-21T08:36:42;11.00;99.90
14182;DHT22;7171;50.936;6.764;2023-11-21T08:39:09;11.00;99.90
14182;DHT22;7171;50.936;6.764;2023-11-21T08:41:37;11.00;99.90
14182;DHT22;7171;50.936;6.764;2023-11-21T08:44:04;11.00;99.90
14182;DHT22;7171;50.936;6.764;2023-11-21T08:46:32;11.00;99.90
14182;DHT22;7171;50.936;6.764;2023-11-21T08:49:00;11.00;99.90
14182;DHT22;7171;50.936;6.764;2023-11-21T08:51:27;10.90;99.90
14182;DHT22;7171;50.936;6.764;2023-11-21T08:53:54;10.90;99.90
14182;DHT22;7171;50.936;6.764;2023-11-21T08:56:24;10.90;99.90
14182;DHT22;7171;50.936;6.764;2023-11-21T08:58:52;10.90;99.90
14182;DHT22;7171;50.936;6.764;2023-11-21T09:01:19;10.80;99.90
14182;DHT22;7171;50.936;6.764;2023-11-21T09:03:46;10.80;99.90
14182;DHT22;7171;50.936;6.764;2023-11-21T09:06:13;10.80;99.90
14182;DHT22;7171;50.936;6.764;2023-11-21T09:08:40;10.80;99.90
14182;DHT22;7171;50.936;6.764;2023-11-21T09:11:07;10.80;99.90
14182;DHT22;7171;50.936;6.764;2023-11-21T09:13:34;10.80;99.90
14182;DHT22;7171;50.936;6.764;2023-11-21T09:16:03;10.80;99.90
14182;DHT22;7171;50.936;6.764;2023-11-21T09:18:31;10.80;99.90
14182;DHT22;7171;50.936;6.764;2023-11-21T09:20:58;10.80;99.90
14182;DHT22;7171;50.936;6.764;2023-11-21T09:23:25;10.90;99.90
14182;DHT22;7171;50.936;6.764;2023-11-21T09:25:52;10.90;99.90
14182;DHT22;7171;50.936;6.764;2023-11-21T09:28:22;10.90;99.90
14182;DHT22;7171;50.936;6.764;2023-11-21T09:30:49;11.00;99.90
14182;DHT22;7171;50.936;6.764;2023-11-21T09:33:17;11.00;99.90
14182;DHT22;7171;50.936;6.764;2023-11-21T09:35:44;11.00;99.90
14182;DHT22;7171;50.936;6.764;2023-11-21T09:38:11;11.10;99.90
14182;DHT22;7171;50.936;6.764;2023-11-21T09:40:38;11.10;99.90
14182;DHT22;7171;50.936;6.764;2023-11-21T09:43:06;11.10;99.90
14182;DHT22;7171;50.936;6.764;2023-11-21T09:45:39;11.10;99.90
14182;DHT22;7171;50.936;6.764;2023-11-21T09:48:07;11.20;99.90
14182;DHT22;7171;50.936;6.764;2023-11-21T09:50:41;11.10;99.90
14182;DHT22;7171;50.936;6.764;2023-11-21T09:53:13;11.20;99.90
14182;DHT22;7171;50.936;6.764;2023-11-21T09:55:43;11.20;99.90
14182;DHT22;7171;50.936;6.764;2023-11-21T09:58:10;11.30;99.90
14182;DHT22;7171;50.936;6.764;2023-11-21T10:00:40;11.20;99.90
14182;DHT22;7171;50.936;6.764;2023-11-21T10:03:07;11.40;99.90
14182;DHT22;7171;50.936;6.764;2023-11-21T10:05:34;11.40;99.90
14182;DHT22;7171;50.936;6.764;2023-11-21T10:08:04;11.40;99.90
14182;DHT22;7171;50.936;6.764;2023-11-21T10:10:32;11.40;99.90
14182;DHT22;7171;50.936;6.764;2023-11-21T10:13:02;11.40;99.90
14182;DHT22;7171;50.936;6.764;2023-11-21T10:15:33;11.40;99.90
14182;DHT22;7171;50.936;6.764;2023-11-21T10:18:02;11.40;99.90
14182;DHT22;7171;50.936;6.764;2023-11-21T10:20:30;11.50;99.90
14182;DHT22;7171;50.936;6.764;2023-11-21T10:22:59;11.60;99.90
14182;DHT22;7171;50.936;6.764;2023-11-21T10:25:28;11.50;99.90
14182;DHT22;7171;50.936;6.764;2023-11-21T10:27:58;11.50;99.90
14182;DHT22;7171;50.936;6.764;2023-11-21T10:30:33;11.50;99.90
14182;DHT22;7171;50.936;6.764;2023-11-21T10:33:03;11.50;99.90
14182;DHT22;7171;50.936;6.764;2023-11-21T10:35:42;11.50;99.90
14182;DHT22;7171;50.936;6.764;2023-11-21T10:38:12;11.40;99.90
14182;DHT22;7171;50.936;6.764;2023-11-21T10:40:41;11.50;99.90
14182;DHT22;7171;50.936;6.764;2023-11-21T10:43:08;11.50;99.90
14182;DHT22;7171;50.936;6.764;2023-11-21T10:45:36;11.60;99.90
14182;DHT22;7171;50.936;6.764;2023-11-21T10:48:05;11.60;99.90
14182;DHT22;7171;50.936;6.764;2023-11-21T10:50:33;11.60;99.90
14182;DHT22;7171;50.936;6.764;2023-11-21T10:53:02;11.60;99.90
14182;DHT22;7171;50.936;6.764;2023-11-21T10:55:29;11.60;99.90
14182;DHT22;7171;50.936;6.764;2023-11-21T10:57:59;11.60;99.90
14182;DHT22;7171;50.936;6.764;2023-11-21T11:00:27;11.60;99.90
14182;DHT22;7171;50.936;6.764;2023-11-21T11:02:54;11.60;99.90
14182;DHT22;7171;50.936;6.764;2023-11-21T11:05:22;11.70;99.90
14182;DHT22;7171;50.936;6.764;2023-11-21T11:07:51;11.70;99.90
14182;DHT22;7171;50.936;6.764;2023-11-21T11:10:20;11.70;99.90
14182;DHT22;7171;50.936;6.764;2023-11-21T11:12:48;11.80;99.90
14182;DHT22;7171;50.936;6.764;2023-11-21T11:15:17;11.90;99.90
14182;DHT22;7171;50.936;6.764;2023-11-21T11:17:45;11.80;99.90
14182;DHT22;7171;50.936;6.764;2023-11-21T11:20:14;11.80;99.90
14182;DHT22;7171;50.936;6.764;2023-11-21T11:22:46;11.80;99.90
14182;DHT22;7171;50.936;6.764;2023-11-21T11:25:25;11.90;99.90
14182;DHT22;7171;50.936;6.764;2023-11-21T11:27:57;11.90;99.90
14182;DHT22;7171;50.936;6.764;2023-11-21T11:30:38;11.90;99.90
14182;DHT22;7171;50.936;6.764;2023-11-21T11:33:11;11.90;99.90
14182;DHT22;7171;50.936;6.764;2023-11-21T11:35:49;11.90;99.90
14182;DHT22;7171;50.936;6.764;2023-11-21T11:38:20;11.80;99.90
14182;DHT22;7171;50.936;6.764;2023-11-21T11:40:47;11.80;99.90
14182;DHT22;7171;50.936;6.764;2023-11-21T11:43:25;11.90;99.90
14182;DHT22;7171;50.936;6.764;2023-11-21T11:45:55;11.80;99.90
14182;DHT22;7171;50.936;6.764;2023-11-21T11:48:22;11.80;99.90
14182;DHT22;7171;50.936;6.764;2023-11-21T11:51:09;11.80;99.90
14182;DHT22;7171;50.936;6.764;2023-11-21T11:53:40;11.80;99.90
14182;DHT22;7171;50.936;6.764;2023-11-21T11:56:23;11.70;99.90
14182;DHT22;7171;50.936;6.764;2023-11-21T11:58:51;11.80;99.90
14182;DHT22;7171;50.936;6.764;2023-11-21T12:01:21;11.80;99.90
14182;DHT22;7171;50.936;6.764;2023-11-21T12:04:24;11.90;99.90
14182;DHT22;7171;50.936;6.764;2023-11-21T12:06:57;11.80;99.90
14182;DHT22;7171;50.936;6.764;2023-11-21T12:09:28;11.80;99.90
14182;DHT22;7171;50.936;6.764;2023-11-21T12:11:55;11.80;99.90
14182;DHT22;7171;50.936;6.764;2023-11-21T12:14:23;11.80;99.90
14182;DHT22;7171;50.936;6.764;2023-11-21T12:16:51;11.80;99.90
14182;DHT22;7171;50.936;6.764;2023-11-21T12:19:19;11.80;99.90
14182;DHT22;7171;50.936;6.764;2023-11-21T12:21:47;11.80;99.90
14182;DHT22;7171;50.936;6.764;2023-11-21T12:24:14;11.80;99.90
14182;DHT22;7171;50.936;6.764;2023-11-21T12:26:42;11.80;99.90
14182;DHT22;7171;50.936;6.764;2023-11-21T12:29:09;11.80;99.90
14182;DHT22;7171;50.936;6.764;2023-11-21T12:31:36;11.80;99.90
14182;DHT22;7171;50.936;6.764;2023-11-21T12:34:04;11.80;99.90
14182;DHT22;7171;50.936;6.764;2023-11-21T12:36:32;11.70;99.90
14182;DHT22;7171;50.936;6.764;2023-11-21T12:39:00;11.80;99.90
14182;DHT22;7171;50.936;6.764;2023-11-21T12:41:28;11.80;99.90
14182;DHT22;7171;50.936;6.764;2023-11-21T12:43:56;11.70;99.90
14182;DHT22;7171;50.936;6.764;2023-11-21T12:46:23;11.60;99.90
14182;DHT22;7171;50.936;6.764;2023-11-21T12:48:51;11.70;99.90
14182;DHT22;7171;50.936;6.764;2023-11-21T12:51:20;11.60;99.90
14182;DHT22;7171;50.936;6.764;2023-11-21T12:53:47;11.60;99.90
14182;DHT22;7171;50.936;6.764;2023-11-21T12:56:14;11.70;99.90
14182;DHT22;7171;50.936;6.764;2023-11-21T12:58:45;11.60;99.90
14182;DHT22;7171;50.936;6.764;2023-11-21T13:01:13;11.50;99.90
14182;DHT22;7171;50.936;6.764;2023-11-21T13:03:47;11.70;99.90
14182;DHT22;7171;50.936;6.764;2023-11-21T13:06:18;11.70;99.90
14182;DHT22;7171;50.936;6.764;2023-11-21T13:08:50;11.70;99.90
14182;DHT22;7171;50.936;6.764;2023-11-21T13:11:17;11.70;99.90
14182;DHT22;7171;50.936;6.764;2023-11-21T13:13:44;11.70;99.90
14182;DHT22;7171;50.936;6.764;2023-11-21T13:16:11;11.70;99.90
14182;DHT22;7171;50.936;6.764;2023-11-21T13:18:38;11.70;99.90
14182;DHT22;7171;50.936;6.764;2023-11-21T13:21:08;11.80;99.90
14182;DHT22;7171;50.936;6.764;2023-11-21T13:23:41;11.80;99.90
14182;DHT22;7171;50.936;6.764;2023-11-21T13:26:08;11.60;99.90
14182;DHT22;7171;50.936;6.764;2023-11-21T13:28:36;11.70;99.90
14182;DHT22;7171;50.936;6.764;2023-11-21T13:31:04;11.70;99.90
14182;DHT22;7171;50.936;6.764;2023-11-21T13:33:37;11.70;99.90
14182;DHT22;7171;50.936;6.764;2023-11-21T13:36:05;11.80;99.90
14182;DHT22;7171;50.936;6.764;2023-11-21T13:38:33;11.70;99.90
14182;DHT22;7171;50.936;6.764;2023-11-21T13:41:02;11.60;99.90
14182;DHT22;7171;50.936;6.764;2023-11-21T13:43:32;11.70;99.90
14182;DHT22;7171;50.936;6.764;2023-11-21T13:45:59;11.80;99.90
14182;DHT22;7171;50.936;6.764;2023-11-21T13:48:29;11.80;99.90
14182;DHT22;7171;50.936;6.764;2023-11-21T13:51:06;11.60;99.90
14182;DHT22;7171;50.936;6.764;2023-11-21T13:53:41;11.70;99.90
14182;DHT22;7171;50.936;6.764;2023-11-21T13:56:10;11.70;99.90
14182;DHT22;7171;50.936;6.764;2023-11-21T13:58:38;11.70;99.90
14182;DHT22;7171;50.936;6.764;2023-11-21T14:01:16;11.80;99.90
14182;DHT22;7171;50.936;6.764;2023-11-21T14:04:07;11.80;99.90
14182;DHT22;7171;50.936;6.764;2023-11-21T14:06:45;11.80;99.90
14182;DHT22;7171;50.936;6.764;2023-11-21T14:09:13;11.80;99.90
14182;DHT22;7171;50.936;6.764;2023-11-21T14:11:49;11.80;99.90
14182;DHT22;7171;50.936;6.764;2023-11-21T14:14:17;11.90;99.90
14182;DHT22;7171;50.936;6.764;2023-11-21T14:16:44;11.80;99.90
14182;DHT22;7171;50.936;6.764;2023-11-21T14:19:11;11.80;99.90
14182;DHT22;7171;50.936;6.764;2023-11-21T14:21:41;11.80;99.90
14182;DHT22;7171;50.936;6.764;2023-11-21T14:24:09;11.80;99.90
14182;DHT22;7171;50.936;6.764;2023-11-21T14:26:39;11.80;99.90
14182;DHT22;7171;50.936;6.764;2023-11-21T14:29:07;11.80;99.90
14182;DHT22;7171;50.936;6.764;2023-11-21T14:31:34;11.80;99.90
14182;DHT22;7171;50.936;6.764;2023-11-21T14:34:01;11.80;99.90
14182;DHT22;7171;50.936;6.764;2023-11-21T14:36:28;11.80;99.90
14182;DHT22;7171;50.936;6.764;2023-11-21T14:38:55;11.80;99.90
14182;DHT22;7171;50.936;6.764;2023-11-21T14:41:22;11.80;99.90
14182;DHT22;7171;50.936;6.764;2023-11-21T14:43:50;11.80;99.90
14182;DHT22;7171;50.936;6.764;2023-11-21T14:46:20;11.70;99.90
14182;DHT22;7171;50.936;6.764;2023-11-21T14:48:46;11.80;99.90
14182;DHT22;7171;50.936;6.764;2023-11-21T14:51:24;11.80;99.90
14182;DHT22;7171;50.936;6.764;2023-11-21T14:53:56;11.80;99.90
14182;DHT22;7171;50.936;6.764;2023-11-21T14:56:31;11.80;99.90
14182;DHT22;7171;50.936;6.764;2023-11-21T14:59:00;11.70;99.90
14182;DHT22;7171;50.936;6.764;2023-11-21T15:01:32;11.60;99.90
14182;DHT22;7171;50.936;6.764;2023-11-21T15:04:10;11.70;99.90
14182;DHT22;7171;50.936;6.764;2023-11-21T15:06:46;11.70;99.90
14182;DHT22;7171;50.936;6.764;2023-11-21T15:09:13;11.80;99.90
14182;DHT22;7171;50.936;6.764;2023-11-21T15:12:00;11.70;99.90
14182;DHT22;7171;50.936;6.764;2023-11-21T15:14:38;11.70;99.90
14182;DHT22;7171;50.936;6.764;2023-11-21T15:17:06;11.80;99.90
14182;DHT22;7171;50.936;6.764;2023-11-21T15:19:33;11.80;99.90
14182;DHT22;7171;50.936;6.764;2023-11-21T15:22:01;11.70;99.90
14182;DHT22;7171;50.936;6.764;2023-11-21T15:24:28;11.80;99.90
14182;DHT22;7171;50.936;6.764;2023-11-21T15:26:55;11.90;99.90
14182;DHT22;7171;50.936;6.764;2023-11-21T15:29:21;11.80;99.90
14182;DHT22;7171;50.936;6.764;2023-11-21T15:31:49;11.80;99.90
14182;DHT22;7171;50.936;6.764;2023-11-21T15:34:22;11.90;99.90
14182;DHT22;7171;50.936;6.764;2023-11-21T15:36:49;11.80;99.90
14182;DHT22;7171;50.936;6.764;2023-11-21T15:39:18;11.80;99.90
14182;DHT22;7171;50.936;6.764;2023-11-21T15:41:46;11.80;99.90
14182;DHT22;7171;50.936;6.764;2023-11-21T15:44:13;11.80;99.90
14182;DHT22;7171;50.936;6.764;2023-11-21T15:46:40;11.80;99.90
14182;DHT22;7171;50.936;6.764;2023-11-21T15:49:07;11.70;99.90
14182;DHT22;7171;50.936;6.764;2023-11-21T15:51:39;11.70;99.90
14182;DHT22;7171;50.936;6.764;2023-11-21T15:54:06;11.60;99.90
14182;DHT22;7171;50.936;6.764;2023-11-21T15:56:34;11.50;99.90